Time;durP1;ratioP1;P1;durP2;ratioP2;P2;SDS_P1;SDS_P2;PMS_P1;PMS_P2;Temp;Humidity;BMP_temperature;BMP_pressure;BME280_temperature;BME280_humidity;BME280_pressure;Samples;Min_cycle;Max_cycle;Signal;HPM_P1;HPM_P2
2023/03/05 00:00:18;;;;;;;13.57;7.20;;;;;;;-143.84;74.52;45176.66;5089178;28;20494;-73
2023/03/05 00:02:45;;;;;;;19.43;8.57;;;;;;;-143.84;74.37;45165.22;5088635;28;20936;-73
2023/03/05 00:05:13;;;;;;;8.83;7.17;;;;;;;-143.84;74.61;45189.97;5091299;28;20446;-72
2023/03/05 00:07:40;;;;;;;12.70;7.20;;;;;;;-143.84;74.96;45205.22;5092775;28;20530;-72
2023/03/05 00:10:08;;;;;;;18.83;7.90;;;;;;;-143.84;74.87;45170.94;5092325;28;21306;-73
2023/03/05 00:12:35;;;;;;;11.70;8.57;;;;;;;-143.84;74.87;45176.66;5092460;28;20935;-73
2023/03/05 00:15:04;;;;;;;11.13;8.00;;;;;;;-143.84;74.62;45178.56;5092561;28;20445;-73
2023/03/05 00:17:31;;;;;;;11.10;8.00;;;;;;;-143.84;74.75;45174.75;5091847;28;20508;-73
2023/03/05 00:19:59;;;;;;;13.40;7.03;;;;;;;-143.84;74.64;45165.22;5072464;28;20437;-73
2023/03/05 00:22:26;;;;;;;13.40;7.93;;;;;;;-143.84;75.07;45174.75;5072275;28;20452;-73
2023/03/05 00:24:53;;;;;;;13.17;7.97;;;;;;;-143.84;74.92;45174.75;5072292;28;20927;-73
2023/03/05 00:27:20;;;;;;;12.00;8.70;;;;;;;-143.84;75.33;45189.97;5072104;28;20487;-73
2023/03/05 00:29:48;;;;;;;15.30;9.30;;;;;;;-143.84;75.25;45176.66;5072310;28;20443;-73
2023/03/05 00:32:16;;;;;;;11.77;8.83;;;;;;;-143.84;75.50;45178.56;5071883;28;20458;-73
2023/03/05 00:34:43;;;;;;;12.63;9.90;;;;;;;-143.84;75.83;45161.41;5071454;28;20443;-73
2023/03/05 00:37:10;;;;;;;18.53;10.17;;;;;;;-143.84;75.98;45176.66;5071513;28;20840;-73
2023/03/05 00:39:38;;;;;;;20.33;9.37;;;;;;;-143.84;76.41;45188.06;5071845;28;20505;-73
2023/03/05 00:42:05;;;;;;;20.20;10.13;;;;;;;-143.84;76.64;45146.19;5085918;28;20462;-73
2023/03/05 00:44:32;;;;;;;18.30;9.87;;;;;;;-143.84;76.61;45193.78;5091995;28;20476;-73
2023/03/05 00:46:59;;;;;;;20.03;10.40;;;;;;;-143.84;77.18;45151.91;5092059;28;20483;-73
2023/03/05 00:49:28;;;;;;;19.47;10.67;;;;;;;-143.84;76.97;45165.22;5091831;28;20892;-73
2023/03/05 00:51:55;;;;;;;18.73;10.77;;;;;;;-143.84;76.88;45174.75;5092134;28;20496;-73
2023/03/05 00:54:22;;;;;;;16.20;10.53;;;;;;;-143.84;76.73;45167.13;5091829;28;20455;-73
2023/03/05 00:56:49;;;;;;;12.37;9.20;;;;;;;-143.84;76.52;45178.56;5091643;28;20474;-73
2023/03/05 00:59:16;;;;;;;13.27;9.30;;;;;;;-143.84;76.21;45186.16;5091004;28;20529;-72
2023/03/05 01:01:43;;;;;;;16.80;9.60;;;;;;;-143.84;75.89;45184.25;5091407;28;20851;-73
2023/03/05 01:04:11;;;;;;;15.63;10.10;;;;;;;-143.84;75.69;45165.22;5091768;28;20456;-72
2023/03/05 01:06:43;;;;;;;15.63;10.30;;;;;;;-143.84;75.78;45167.13;5091663;28;20555;-72
2023/03/05 01:09:10;;;;;;;13.77;10.00;;;;;;;-143.84;75.61;45191.88;5091901;28;20444;-72
2023/03/05 01:11:37;;;;;;;13.93;9.37;;;;;;;-143.84;76.05;45169.03;5091156;28;20446;-73
2023/03/05 01:14:04;;;;;;;20.10;12.30;;;;;;;-143.84;76.21;45155.69;5091231;28;20980;-72
2023/03/05 01:16:31;;;;;;;19.77;12.30;;;;;;;-143.84;76.61;45174.75;5091671;28;20522;-73
2023/03/05 01:18:58;;;;;;;21.67;14.93;;;;;;;-143.84;77.07;45153.81;5092252;28;20438;-73
2023/03/05 01:21:25;;;;;;;22.53;13.53;;;;;;;-143.84;77.78;45169.03;5077002;28;20509;-81
2023/03/05 01:23:54;;;;;;;28.37;12.20;;;;;;;-143.84;78.14;45167.13;5072635;28;20443;-81
2023/03/05 01:26:21;;;;;;;21.60;12.10;;;;;;;-143.84;78.68;45170.94;5074069;28;20823;-81
2023/03/05 01:28:49;;;;;;;24.97;13.57;;;;;;;-143.84;78.50;45176.66;5073983;28;20446;-81
2023/03/05 01:31:16;;;;;;;15.70;11.10;;;;;;;-143.84;78.37;45153.81;5073814;28;20856;-81
2023/03/05 01:33:43;;;;;;;22.90;13.60;;;;;;;-143.84;79.07;45184.25;5073683;28;20505;-81
2023/03/05 01:36:14;;;;;;;21.30;12.50;;;;;;;-143.84;79.14;45197.59;5073835;28;20493;-80
2023/03/05 01:38:41;;;;;;;20.43;13.00;;;;;;;-143.84;79.01;45165.22;5073987;28;20447;-81
2023/03/05 01:41:12;;;;;;;19.13;12.60;;;;;;;-143.84;79.37;45153.81;5073848;28;20809;-81
2023/03/05 01:43:39;;;;;;;18.80;12.30;;;;;;;-143.84;79.47;45136.66;5073981;28;20840;-81
2023/03/05 01:46:33;;;;;;;21.33;14.77;;;;;;;-143.84;79.84;45170.94;5073814;28;20497;-81
2023/03/05 01:49:15;;;;;;;22.57;13.30;;;;;;;-143.84;79.62;45142.38;5072810;28;21057;-81
2023/03/05 01:51:50;;;;;;;28.93;13.40;;;;;;;-143.84;79.77;45161.41;5073849;28;20433;-81
2023/03/05 01:54:21;;;;;;;28.17;13.70;;;;;;;-143.84;79.98;45155.69;5073880;28;20496;-81
2023/03/05 01:56:52;;;;;;;20.07;12.80;;;;;;;-143.84;79.87;45172.84;5073685;28;20832;-81
2023/03/05 01:59:22;;;;;;;19.20;12.13;;;;;;;-143.84;80.02;45146.19;5073701;28;20466;-81
2023/03/05 02:01:53;;;;;;;30.53;15.03;;;;;;;-143.84;80.21;45144.28;5072008;28;20496;-80
2023/03/05 02:04:24;;;;;;;23.80;17.00;;;;;;;-143.84;80.19;45130.94;5073137;28;20454;-80
2023/03/05 02:06:51;;;;;;;21.80;12.80;;;;;;;-143.84;80.69;45142.38;5072965;28;21019;-80
2023/03/05 02:09:22;;;;;;;24.10;13.70;;;;;;;-143.84;80.23;45134.75;5073860;28;20481;-81
2023/03/05 02:11:52;;;;;;;24.93;13.30;;;;;;;-143.84;80.44;45134.75;5072890;28;20447;-81
2023/03/05 02:14:19;;;;;;;28.90;13.90;;;;;;;-143.84;81.00;45144.28;5074207;28;20937;-81
2023/03/05 02:16:46;;;;;;;21.73;13.90;;;;;;;-143.84;80.78;45138.56;5075076;28;20945;-81
2023/03/05 02:19:13;;;;;;;21.33;13.27;;;;;;;-143.84;80.80;45117.63;5075620;28;20441;-81
2023/03/05 02:21:44;;;;;;;20.57;12.70;;;;;;;-143.84;81.10;45092.88;5075564;28;20430;-81
2023/03/05 02:24:13;;;;;;;26.40;14.30;;;;;;;-143.84;81.10;45119.53;5075125;28;20435;-81
2023/03/05 02:26:41;;;;;;;21.43;13.77;;;;;;;-143.84;81.36;45110.00;5074578;28;20563;-81
2023/03/05 02:29:10;;;;;;;28.63;14.40;;;;;;;-143.84;80.84;45142.38;5074581;28;20471;-81
2023/03/05 02:31:38;;;;;;;18.80;13.63;;;;;;;-143.84;81.32;45115.72;5073643;28;20857;-81
2023/03/05 02:34:06;;;;;;;23.40;14.37;;;;;;;-143.84;80.67;45111.91;5073302;28;20433;-79
2023/03/05 02:36:33;;;;;;;30.60;14.00;;;;;;;-143.84;80.70;45100.47;5073943;28;20518;-81
2023/03/05 02:39:02;;;;;;;22.53;13.53;;;;;;;-143.84;80.68;45130.94;5074945;28;20436;-81
2023/03/05 02:41:29;;;;;;;22.63;13.87;;;;;;;-143.84;80.04;45138.56;5075116;28;20469;-82
2023/03/05 02:43:56;;;;;;;24.50;14.80;;;;;;;-143.84;80.24;45146.19;5074846;28;20504;-81
2023/03/05 02:46:24;;;;;;;24.30;14.67;;;;;;;-143.84;80.30;45142.38;5074734;28;20870;-81
2023/03/05 02:48:51;;;;;;;42.03;16.30;;;;;;;-143.84;79.68;45163.31;5074835;28;20495;-81
2023/03/05 02:51:18;;;;;;;26.23;14.80;;;;;;;-143.84;79.54;45178.56;5075230;28;20861;-81
2023/03/05 02:53:45;;;;;;;24.60;13.87;;;;;;;-143.84;78.74;45142.38;5075070;28;20434;-81
2023/03/05 02:56:14;;;;;;;25.30;14.93;;;;;;;-143.84;78.08;45188.06;5074207;28;20481;-81
2023/03/05 02:58:41;;;;;;;26.37;16.60;;;;;;;-143.84;77.96;45193.78;5073645;28;20446;-81
2023/03/05 03:01:09;;;;;;;28.13;16.13;;;;;;;-143.84;77.18;45188.06;5072479;28;20502;-81
2023/03/05 03:03:37;;;;;;;23.10;13.60;;;;;;;-143.84;76.98;45186.16;5074645;28;20434;-80
2023/03/05 03:06:05;;;;;;;26.07;14.70;;;;;;;-143.84;76.35;45188.06;5073874;28;20441;-80
2023/03/05 03:08:32;;;;;;;27.70;14.50;;;;;;;-143.84;75.83;45174.75;5072561;28;20874;-81
2023/03/05 03:11:05;;;;;;;22.07;15.27;;;;;;;-143.84;76.15;45178.56;5072202;28;20450;-80
2023/03/05 03:13:34;;;;;;;32.00;14.10;;;;;;;-143.84;76.01;45199.50;5072725;28;20430;-80
2023/03/05 03:16:05;;;;;;;24.33;13.83;;;;;;;-143.84;76.15;45188.06;5072274;28;20468;-80
2023/03/05 03:18:33;;;;;;;27.80;16.53;;;;;;;-143.84;75.92;45161.41;5072363;28;20434;-80
2023/03/05 03:21:00;;;;;;;29.63;15.90;;;;;;;-143.84;75.87;45176.66;5072046;28;20862;-80
2023/03/05 03:23:27;;;;;;;22.30;14.90;;;;;;;-143.84;75.83;45184.25;5071948;28;20496;-80
2023/03/05 03:25:54;;;;;;;27.03;14.33;;;;;;;-143.84;75.65;45191.88;5071243;28;20467;-80
2023/03/05 03:28:22;;;;;;;33.20;15.33;;;;;;;-143.84;75.91;45197.59;5071940;28;20481;-80
2023/03/05 03:30:50;;;;;;;27.30;15.53;;;;;;;-143.84;76.40;45178.56;5071947;28;20439;-80
2023/03/05 03:33:17;;;;;;;29.97;16.57;;;;;;;-143.84;77.64;45178.56;5072240;28;20444;-81
2023/03/05 03:35:45;;;;;;;27.57;16.73;;;;;;;-143.84;77.52;45193.78;5072160;28;20862;-80
2023/03/05 03:38:12;;;;;;;27.67;15.40;;;;;;;-143.84;77.63;45191.88;5071672;28;20969;-80
2023/03/05 03:40:40;;;;;;;22.57;14.70;;;;;;;-143.84;76.52;45186.16;5071971;28;20846;-80
2023/03/05 03:43:08;;;;;;;41.00;16.70;;;;;;;-143.84;75.53;45169.03;5072161;28;20799;-80
2023/03/05 03:45:35;;;;;;;27.57;16.33;;;;;;;-143.84;75.27;45193.78;5071758;28;20495;-81
2023/03/05 03:48:04;;;;;;;26.00;16.57;;;;;;;-143.84;74.75;45228.06;5071053;28;20511;-81
2023/03/05 03:50:31;;;;;;;29.47;15.57;;;;;;;-143.84;73.92;45210.94;5070392;28;20836;-81
2023/03/05 03:52:58;;;;;;;33.70;16.03;;;;;;;-143.84;73.70;45226.16;5071609;28;20495;-82
2023/03/05 03:55:25;;;;;;;27.10;14.97;;;;;;;-143.84;74.01;45205.22;5071940;28;20438;-81
2023/03/05 03:57:53;;;;;;;28.90;16.33;;;;;;;-143.84;74.13;45174.75;5072018;28;20437;-80
2023/03/05 04:00:21;;;;;;;31.30;14.97;;;;;;;-143.84;72.05;45186.16;5073838;28;20931;-80
2023/03/05 04:02:48;;;;;;;31.07;17.17;;;;;;;-143.84;71.88;45188.06;5074040;28;20475;-80
2023/03/05 04:05:17;;;;;;;33.13;17.30;;;;;;;-143.84;71.71;45289.00;5073748;28;20947;-80
2023/03/05 04:07:45;;;;;;;35.03;16.90;;;;;;;-143.84;71.87;45197.59;5076073;28;20527;-80
2023/03/05 04:10:12;;;;;;;28.70;16.17;;;;;;;-143.84;70.99;45188.06;5074714;28;20433;-80
2023/03/05 04:12:41;;;;;;;33.80;17.90;;;;;;;-143.84;71.20;45163.31;5074144;28;20405;-81
2023/03/05 04:15:09;;;;;;;41.07;18.80;;;;;;;-143.84;71.78;45174.75;5071362;28;21024;-82
2023/03/05 04:17:37;;;;;;;27.13;17.33;;;;;;;-143.84;71.65;45176.66;5072573;28;20425;-82
2023/03/05 04:20:07;;;;;;;33.30;17.53;;;;;;;-143.84;72.16;45207.13;5072923;28;20437;-81
2023/03/05 04:22:35;;;;;;;34.27;18.43;;;;;;;-143.84;71.79;45205.22;5072240;28;20476;-81
2023/03/05 04:25:05;;;;;;;37.33;17.93;;;;;;;-143.84;72.00;45174.75;5071732;28;20927;-81
2023/03/05 04:27:33;;;;;;;34.97;20.17;;;;;;;-143.84;71.45;45207.13;5071190;28;20499;-81
2023/03/05 04:30:00;;;;;;;38.07;19.87;;;;;;;-143.84;71.71;45199.50;5071628;28;20434;-81
2023/03/05 04:32:28;;;;;;;44.17;19.80;;;;;;;-143.84;71.57;45178.56;5071595;28;20436;-81
2023/03/05 04:34:56;;;;;;;38.27;20.30;;;;;;;-143.84;70.86;45170.94;5071356;28;20442;-80
2023/03/05 04:37:23;;;;;;;42.40;19.77;;;;;;;-143.84;70.00;45203.31;5068950;28;20445;-73
2023/03/05 04:39:51;;;;;;;44.27;21.57;;;;;;;-143.84;70.39;45201.41;5069727;28;20440;-73
2023/03/05 04:42:19;;;;;;;40.47;20.27;;;;;;;-143.84;69.62;45214.72;5070479;28;20931;-73
2023/03/05 04:44:47;;;;;;;38.57;21.57;;;;;;;-143.84;69.97;45209.03;5070149;28;20452;-73
2023/03/05 04:47:15;;;;;;;41.83;20.30;;;;;;;-143.84;69.49;45222.34;5069952;28;20459;-73
2023/03/05 04:49:42;;;;;;;43.67;22.70;;;;;;;-143.84;70.31;45197.59;5070166;28;20532;-73
2023/03/05 04:52:11;;;;;;;41.87;20.40;;;;;;;-143.84;70.27;45201.41;5073738;28;20442;-73
2023/03/05 04:54:38;;;;;;;40.23;20.13;;;;;;;-143.84;70.14;45212.84;5073566;28;20437;-73
2023/03/05 04:57:07;;;;;;;42.50;22.30;;;;;;;-143.84;70.25;45220.44;5073901;28;20456;-73
2023/03/05 04:59:34;;;;;;;39.47;21.77;;;;;;;-143.84;70.02;45188.06;5073745;28;20518;-73
2023/03/05 05:02:01;;;;;;;44.83;24.10;;;;;;;-143.84;69.79;45220.44;5072107;28;21090;-73
2023/03/05 05:04:28;;;;;;;43.53;22.10;;;;;;;-143.84;69.06;45193.78;5073087;28;20433;-73
2023/03/05 05:06:56;;;;;;;40.60;23.33;;;;;;;-143.84;69.75;45178.56;5073511;28;20534;-73
2023/03/05 05:09:24;;;;;;;39.23;22.07;;;;;;;-143.84;69.43;45199.50;5073736;28;20478;-73
2023/03/05 05:11:51;;;;;;;43.23;22.07;;;;;;;-143.84;69.66;45195.69;5073450;28;20467;-73
2023/03/05 05:14:19;;;;;;;48.60;22.90;;;;;;;-143.84;69.23;45201.41;5073495;28;20452;-73
2023/03/05 05:16:47;;;;;;;39.60;23.00;;;;;;;-143.84;69.03;45169.03;5073750;28;20438;-73
2023/03/05 05:19:14;;;;;;;36.97;20.80;;;;;;;-143.84;69.21;45197.59;5073407;28;20441;-73
2023/03/05 05:21:41;;;;;;;38.83;20.17;;;;;;;-143.84;68.63;45209.03;5077049;28;20433;-73
2023/03/05 05:24:08;;;;;;;41.20;19.67;;;;;;;-143.84;68.07;45212.84;5093690;28;20432;-73
2023/03/05 05:26:36;;;;;;;43.70;23.00;;;;;;;-143.84;68.57;45191.88;5091148;28;20501;-72
2023/03/05 05:29:03;;;;;;;36.77;20.13;;;;;;;-143.84;68.46;45199.50;5092672;28;20480;-73
2023/03/05 05:31:31;;;;;;;45.73;20.53;;;;;;;-143.84;68.52;45188.06;5093115;28;20957;-73
2023/03/05 05:33:58;;;;;;;43.83;21.87;;;;;;;-143.84;69.03;45205.22;5093601;28;20914;-73
2023/03/05 05:36:26;;;;;;;42.97;21.50;;;;;;;-143.84;68.72;45191.88;5093248;28;20493;-73
2023/03/05 05:38:53;;;;;;;47.97;21.67;;;;;;;-143.84;68.43;45212.84;5092998;28;20466;-73
2023/03/05 05:41:20;;;;;;;33.17;19.20;;;;;;;-143.84;68.15;45207.13;5084556;28;20489;-73
2023/03/05 05:43:48;;;;;;;45.33;21.97;;;;;;;-143.84;68.57;45243.31;5092940;28;20433;-73
2023/03/05 05:46:17;;;;;;;36.83;21.47;;;;;;;-143.84;68.89;45157.59;5093160;28;20447;-73
2023/03/05 05:48:46;;;;;;;41.90;21.70;;;;;;;-143.84;68.94;45165.22;5092940;28;20490;-73
2023/03/05 05:51:16;;;;;;;40.83;22.23;;;;;;;-143.84;68.80;45180.47;5092324;28;20459;-73
2023/03/05 05:53:44;;;;;;;49.57;22.40;;;;;;;-143.84;68.35;45207.13;5092658;28;20495;-73
2023/03/05 05:56:12;;;;;;;47.27;22.10;;;;;;;-143.84;68.86;45199.50;5092862;28;20445;-74
2023/03/05 05:58:41;;;;;;;45.43;23.33;;;;;;;-143.84;68.42;45184.25;5091909;28;20885;-73
2023/03/05 06:01:16;;;;;;;51.80;25.07;;;;;;;-143.84;69.21;45184.25;5092217;28;20438;-81
2023/03/05 06:03:45;;;;;;;49.47;23.23;;;;;;;-143.84;69.07;45203.31;5092806;28;20484;-77
2023/03/05 06:06:14;;;;;;;50.37;24.13;;;;;;;-143.84;69.00;45176.66;5093666;28;20443;-80
2023/03/05 06:08:42;;;;;;;39.50;22.77;;;;;;;-143.84;69.25;45174.75;5093209;28;20564;-79
2023/03/05 06:11:09;;;;;;;43.37;22.90;;;;;;;-143.84;69.22;45195.69;5092977;28;20906;-80
2023/03/05 06:13:37;;;;;;;41.03;20.63;;;;;;;-143.84;69.24;45209.03;5090811;28;20451;-80
2023/03/05 06:16:08;;;;;;;47.53;21.83;;;;;;;-143.84;68.60;45210.94;5091722;28;20514;-80
2023/03/05 06:18:35;;;;;;;44.13;21.80;;;;;;;-143.84;69.03;45176.66;5093043;28;20440;-80
2023/03/05 06:21:08;;;;;;;44.53;22.70;;;;;;;-143.84;68.95;45161.41;5093337;28;20943;-80
2023/03/05 06:23:35;;;;;;;49.30;22.83;;;;;;;-143.84;68.71;45163.31;5092863;28;20506;-81
2023/03/05 06:26:05;;;;;;;43.73;22.70;;;;;;;-143.84;68.53;45180.47;5093192;28;20480;-80
2023/03/05 06:28:33;;;;;;;45.70;22.27;;;;;;;-143.84;68.04;45197.59;5093276;28;20545;-80
2023/03/05 06:31:01;;;;;;;40.03;20.93;;;;;;;-143.84;68.41;45191.88;5093318;28;20431;-80
2023/03/05 06:33:29;;;;;;;46.17;21.67;;;;;;;-143.84;67.33;45161.41;5092983;28;20439;-80
2023/03/05 06:35:56;;;;;;;39.23;21.87;;;;;;;-143.84;66.86;45224.25;5093024;28;20441;-80
2023/03/05 06:38:25;;;;;;;42.43;23.43;;;;;;;-143.84;66.21;45220.44;5092267;28;20454;-79
2023/03/05 06:40:52;;;;;;;34.30;21.13;;;;;;;-143.84;66.13;45172.84;5092618;28;20441;-82
2023/03/05 06:43:19;;;;;;;39.20;21.90;;;;;;;-143.84;65.66;45188.06;5094693;28;20866;-81
2023/03/05 06:45:46;;;;;;;36.77;20.20;;;;;;;-143.84;65.80;45189.97;5093495;28;20434;-79
2023/03/05 06:48:13;;;;;;;48.70;21.60;;;;;;;-143.84;65.98;45189.97;5089879;28;20911;-73
2023/03/05 06:50:40;;;;;;;35.27;18.53;;;;;;;-143.84;65.19;45186.16;5089619;28;20513;-73
2023/03/05 06:53:08;;;;;;;55.47;20.93;;;;;;;-143.84;63.89;45176.66;5079902;28;20437;-73
2023/03/05 06:55:39;;;;;;;33.47;18.23;;;;;;;-143.84;63.95;45188.06;5082605;28;20505;-73
2023/03/05 06:58:07;;;;;;;27.77;17.00;;;;;;;-143.84;63.62;45184.25;5081416;28;20455;-74
2023/03/05 07:00:35;;;;;;;40.40;20.40;;;;;;;-143.84;64.25;45188.06;5082137;28;20451;-74
2023/03/05 07:03:02;;;;;;;45.50;19.90;;;;;;;-143.84;64.47;45157.59;5070253;28;20502;-74
2023/03/05 07:05:29;;;;;;;39.13;19.93;;;;;;;-143.84;64.91;45155.69;5074708;28;20451;-74
2023/03/05 07:07:56;;;;;;;37.03;19.70;;;;;;;-143.84;65.84;45170.94;5069757;28;20447;-74
2023/03/05 07:10:23;;;;;;;36.57;20.57;;;;;;;-143.84;65.47;45167.13;5073876;28;20538;-74
2023/03/05 07:12:52;;;;;;;43.07;20.77;;;;;;;-143.84;65.79;45178.56;5076387;28;20453;-73
2023/03/05 07:15:19;;;;;;;41.57;20.83;;;;;;;-143.84;65.82;45191.88;5078024;28;20453;-74
2023/03/05 07:17:46;;;;;;;36.80;19.83;;;;;;;-143.84;65.65;45193.78;5074973;28;20455;-73
2023/03/05 07:20:14;;;;;;;40.70;19.90;;;;;;;-143.84;64.72;45193.78;5073224;28;20451;-74
2023/03/05 07:22:41;;;;;;;41.60;20.60;;;;;;;-143.84;65.33;45193.78;5072765;28;20442;-74
2023/03/05 07:25:09;;;;;;;46.83;21.20;;;;;;;-143.84;65.14;45178.56;5075201;28;20837;-74
2023/03/05 07:27:37;;;;;;;33.53;18.70;;;;;;;-143.84;64.99;45178.56;5075958;28;20928;-74
2023/03/05 07:30:07;;;;;;;41.60;20.60;;;;;;;-143.84;64.27;45178.56;5077549;28;20492;-74
2023/03/05 07:32:36;;;;;;;33.97;19.93;;;;;;;-143.84;64.51;45191.88;5073932;28;20460;-74
2023/03/05 07:35:03;;;;;;;44.10;20.20;;;;;;;-143.84;63.37;45180.47;5074013;28;20531;-74
2023/03/05 07:37:30;;;;;;;34.87;18.97;;;;;;;-143.84;63.62;45193.78;5076116;28;20455;-74
2023/03/05 07:39:58;;;;;;;35.77;18.57;;;;;;;-143.84;62.84;45163.31;5072901;28;20594;-74
2023/03/05 07:42:25;;;;;;;39.13;20.40;;;;;;;-143.84;62.51;45176.66;5071309;28;20490;-74
2023/03/05 07:44:52;;;;;;;34.63;19.43;;;;;;;-143.84;62.60;45167.13;5070948;28;20459;-73
2023/03/05 07:47:22;;;;;;;32.63;18.83;;;;;;;-143.84;62.12;45157.59;5075869;28;20455;-74
2023/03/05 07:49:49;;;;;;;32.17;18.53;;;;;;;-143.84;62.42;45153.81;5077033;28;20575;-73
2023/03/05 07:52:17;;;;;;;36.10;18.47;;;;;;;-143.84;62.74;45140.47;5079091;28;20453;-73
2023/03/05 07:54:44;;;;;;;31.27;19.13;;;;;;;-143.84;62.32;45172.84;5077242;28;20538;-73
2023/03/05 07:57:12;;;;;;;39.73;20.83;;;;;;;-143.84;62.65;45174.75;5076214;28;20447;-73
2023/03/05 07:59:40;;;;;;;35.87;19.20;;;;;;;-143.84;63.29;45167.13;5077711;28;20460;-73
2023/03/05 08:02:08;;;;;;;32.60;18.40;;;;;;;-143.84;63.63;45193.78;5077554;28;20445;-73
2023/03/05 08:04:37;;;;;;;36.37;20.97;;;;;;;-143.84;64.68;45186.16;5078429;28;20445;-75
2023/03/05 08:07:04;;;;;;;35.37;19.00;;;;;;;-143.84;64.27;45167.13;5081150;28;20461;-75
2023/03/05 08:09:31;;;;;;;32.10;18.47;;;;;;;-143.84;62.30;45172.84;5077517;28;20488;-74
2023/03/05 08:11:59;;;;;;;35.67;21.40;;;;;;;-143.84;63.77;45188.06;5074427;28;20503;-74
2023/03/05 08:14:26;;;;;;;42.77;21.70;;;;;;;-143.84;63.59;45180.47;5078466;28;20449;-73
2023/03/05 08:16:53;;;;;;;51.83;24.30;;;;;;;-143.84;63.12;45180.47;5078391;28;20470;-73
2023/03/05 08:19:21;;;;;;;38.40;21.43;;;;;;;-143.84;61.78;45161.41;5079433;28;20521;-73
2023/03/05 08:21:49;;;;;;;38.03;20.00;;;;;;;-143.84;59.84;45163.31;5070275;28;20489;-74
2023/03/05 08:24:16;;;;;;;36.13;20.70;;;;;;;-143.84;61.06;45163.31;5075176;28;20866;-73
2023/03/05 08:26:44;;;;;;;33.47;19.17;;;;;;;-143.84;60.79;45167.13;5079978;28;20450;-71
2023/03/05 08:29:11;;;;;;;41.47;19.30;;;;;;;-143.84;59.49;45167.13;5083915;28;20482;-78
2023/03/05 08:31:39;;;;;;;35.03;18.17;;;;;;;-143.84;58.83;45174.75;5085167;28;20449;-76
2023/03/05 08:34:07;;;;;;;33.03;17.60;;;;;;;-143.84;57.71;45159.50;5088598;28;20506;-77
2023/03/05 08:36:34;;;;;;;33.17;19.50;;;;;;;-143.84;57.54;45184.25;5086469;28;20454;-72
2023/03/05 08:39:02;;;;;;;27.80;18.20;;;;;;;-143.84;57.07;45201.41;5085422;28;20443;-73
2023/03/05 08:41:29;;;;;;;35.47;19.47;;;;;;;-143.84;56.40;45172.84;5085181;28;20972;-73
2023/03/05 08:43:57;;;;;;;38.33;19.90;;;;;;;-143.84;55.92;45146.19;5084810;28;20455;-73
2023/03/05 08:46:24;;;;;;;32.43;17.27;;;;;;;-143.84;55.60;45144.28;5089153;28;20449;-73
2023/03/05 08:48:51;;;;;;;30.33;16.83;;;;;;;-143.84;53.24;45151.91;5086228;28;20491;-72
2023/03/05 08:51:21;;;;;;;33.90;19.37;;;;;;;-143.84;53.25;45151.91;5083587;28;20459;-72
2023/03/05 08:53:48;;;;;;;28.23;17.37;;;;;;;-143.84;50.78;45142.38;5079142;28;20989;-72
2023/03/05 08:56:16;;;;;;;31.93;17.00;;;;;;;-143.84;48.00;45150.00;5081389;28;20440;-73
2023/03/05 08:58:44;;;;;;;30.57;17.00;;;;;;;-143.84;47.92;45153.81;5076046;28;20509;-72
2023/03/05 09:01:12;;;;;;;31.20;17.23;;;;;;;-143.84;47.87;45146.19;5073795;28;20453;-74
2023/03/05 09:03:40;;;;;;;38.20;17.20;;;;;;;-143.84;47.48;45136.66;5075932;28;20451;-75
2023/03/05 09:06:09;;;;;;;35.90;19.07;;;;;;;-143.84;48.55;45110.00;5080988;28;20455;-73
2023/03/05 09:08:36;;;;;;;33.70;18.57;;;;;;;-143.84;48.81;45132.84;5081909;28;20484;-72
2023/03/05 09:11:06;;;;;;;27.03;16.90;;;;;;;-143.84;48.46;45146.19;5083612;28;20447;-73
2023/03/05 09:13:35;;;;;;;43.17;20.40;;;;;;;-143.84;50.11;45117.63;5083437;28;20446;-73
2023/03/05 09:16:04;;;;;;;32.63;18.47;;;;;;;-143.84;49.20;45125.22;5080597;28;20492;-75
2023/03/05 09:18:31;;;;;;;27.67;16.83;;;;;;;-143.84;49.69;45138.56;5077914;28;20448;-75
2023/03/05 09:20:58;;;;;;;28.50;17.60;;;;;;;-143.84;48.66;45134.75;5087309;28;20440;-73
2023/03/05 09:23:26;;;;;;;35.13;19.00;;;;;;;-143.84;48.43;45115.72;5065567;28;20442;-76
2023/03/05 09:25:53;;;;;;;30.07;18.90;;;;;;;-143.84;48.38;45159.50;5078724;28;20450;-73
2023/03/05 09:28:20;;;;;;;36.67;20.00;;;;;;;-143.84;48.83;45134.75;5078508;28;20441;-75
2023/03/05 09:30:49;;;;;;;43.17;19.60;;;;;;;-143.84;48.26;45144.28;5078046;28;20471;-73
2023/03/05 09:33:16;;;;;;;34.13;20.03;;;;;;;-143.84;49.49;45170.94;5081281;28;20451;-73
2023/03/05 09:35:43;;;;;;;34.60;18.30;;;;;;;-143.84;47.76;45125.22;5078097;28;20457;-74
2023/03/05 09:38:10;;;;;;;28.30;17.27;;;;;;;-143.84;47.50;45125.22;5080874;28;20455;-75
2023/03/05 09:40:49;;;;;;;28.07;16.00;;;;;;;-143.84;46.44;45138.56;5076914;28;20449;-74
2023/03/05 09:43:30;;;;;;;30.00;18.27;;;;;;;-143.84;46.44;45115.72;5081689;28;20874;-73
2023/03/05 09:46:15;;;;;;;31.40;18.73;;;;;;;-143.84;46.50;45134.75;5084547;28;20436;-75
2023/03/05 09:48:51;;;;;;;30.20;17.60;;;;;;;-143.84;46.20;45140.47;5084548;28;20482;-76
2023/03/05 09:51:23;;;;;;;37.73;18.13;;;;;;;-143.84;46.19;45121.44;5080959;28;20452;-74
2023/03/05 09:53:58;;;;;;;29.30;17.33;;;;;;;-143.84;47.00;45136.66;5078587;28;20490;-73
2023/03/05 09:56:29;;;;;;;32.90;18.53;;;;;;;-143.84;48.79;45123.34;5079243;28;20451;-73
2023/03/05 09:59:03;;;;;;;26.67;16.77;;;;;;;-143.84;47.43;45129.03;5081230;28;20447;-73
2023/03/05 10:01:38;;;;;;;33.73;17.30;;;;;;;-143.84;46.43;45144.28;5074666;28;20426;-72
2023/03/05 10:04:12;;;;;;;35.73;22.53;;;;;;;-143.84;46.10;45138.56;5074307;28;20968;-73
2023/03/05 10:06:46;;;;;;;36.10;18.87;;;;;;;-143.84;46.23;45134.75;5074726;28;20440;-72
2023/03/05 10:09:23;;;;;;;36.10;20.77;;;;;;;-143.84;45.33;45119.53;5078607;28;20479;-73
2023/03/05 10:11:55;;;;;;;40.37;22.00;;;;;;;-143.84;44.77;45102.38;5075246;28;20448;-73
2023/03/05 10:14:27;;;;;;;39.23;22.80;;;;;;;-143.84;44.55;45132.84;5072815;28;20964;-73
2023/03/05 10:17:33;;;;;;;49.23;23.47;;;;;;;-143.84;44.01;45106.19;5077669;28;20453;-73
2023/03/05 10:20:27;;;;;;;47.23;25.20;;;;;;;-143.84;44.35;45132.84;5085776;28;20517;-73
2023/03/05 10:23:10;;;;;;;37.80;22.80;;;;;;;-143.84;45.37;45138.56;5077822;28;20956;-73
2023/03/05 10:25:58;;;;;;;39.40;24.27;;;;;;;-143.84;46.23;45132.84;5082543;28;20452;-72
2023/03/05 10:28:34;;;;;;;45.80;26.30;;;;;;;-143.84;46.86;45199.50;5086715;28;20450;-73
2023/03/05 10:31:29;;;;;;;53.10;24.07;;;;;;;-143.84;46.15;45150.00;5073571;28;21054;-73
2023/03/05 10:34:22;;;;;;;52.90;24.50;;;;;;;-143.84;46.41;45148.09;5081553;28;20444;-73
2023/03/05 10:37:03;;;;;;;49.53;25.73;;;;;;;-143.84;46.84;45144.28;5080710;28;20509;-72
2023/03/05 10:39:52;;;;;;;55.93;27.93;;;;;;;-143.84;45.98;45130.94;5073965;28;20459;-76
2023/03/05 10:42:27;;;;;;;50.70;20.67;;;;;;;-143.84;45.67;45148.09;5078856;28;20458;-74
2023/03/05 10:44:57;;;;;;;46.90;22.87;;;;;;;-143.84;45.98;45134.75;5083236;28;20497;-74
2023/03/05 10:47:28;;;;;;;41.90;23.40;;;;;;;-143.84;45.64;45155.69;5073200;28;20503;-74
2023/03/05 10:49:58;;;;;;;36.37;21.17;;;;;;;-143.84;46.55;45195.69;5075326;28;21194;-74
2023/03/05 10:52:33;;;;;;;41.43;20.37;;;;;;;-143.84;46.66;45148.09;5079923;28;20938;-74
2023/03/05 10:55:00;;;;;;;37.00;21.53;;;;;;;-143.84;47.61;45123.34;5075782;28;20457;-74
2023/03/05 10:57:30;;;;;;;41.63;19.03;;;;;;;-143.84;48.19;45144.28;5077085;28;20455;-74
2023/03/05 11:00:07;;;;;;;41.47;21.40;;;;;;;-143.84;48.54;45151.91;5074088;28;20444;-74
2023/03/05 11:02:52;;;;;;;44.03;22.97;;;;;;;-143.84;49.20;45138.56;5077676;28;20448;-77
2023/03/05 11:05:39;;;;;;;39.60;22.10;;;;;;;-143.84;49.38;45146.19;5072821;28;20509;-75
2023/03/05 11:08:27;;;;;;;40.83;19.37;;;;;;;-143.84;49.45;45172.84;5079365;28;20450;-74
2023/03/05 11:11:16;;;;;;;51.83;19.50;;;;;;;-143.84;50.19;45159.50;5071078;28;20520;-74